GOOY/DKR METAR and TAF weather

Enter ICAO airport designator
Station Type Date Time Source
GOOY METAR 2022/06/25 23:00 UTC NOAA

GOOY 252300Z 32004KT 8000 BKN013 26/24 Q1012


Station Type Date Time Source
GOOY Decoded METAR 2022/06/25 23:00 UTC NOAA

Dakar / Yoff, Senegal (GOOY) 14-44N 017-30W 24M
Jun 25, 2022 - 07:00 PM EDT / 2022.06.25 2300 UTC
Wind: from the NW (320 degrees) at 5 MPH (4 KT):0
Visibility: 4 mile(s):0
Sky conditions: mostly cloudy
Temperature: 78 F (26 C)
Dew Point: 75 F (24 C)
Relative Humidity: 88%
Pressure (altimeter): 29.88 in. Hg (1012 hPa)
ob: GOOY 252300Z 32004KT 8000 BKN013 26/24 Q1012
cycle: 23

Station Type Date Time Source
GOOY TAF 2022/06/25 18:00 UTC NOAA

TAF GOOY 251700Z 2518/2624 30008KT 8000 NSC

Example: see airport list